sensor_id;sensor_type;location;lat;lon;timestamp;P1;P2;P0
42002;PMS7003;27693;50.506;30.832;2023-07-16T00:00:15;13.20;12.00;9.30
42002;PMS7003;27693;50.506;30.832;2023-07-16T00:01:21;12.90;11.40;9.50
42002;PMS7003;27693;50.506;30.832;2023-07-16T00:02:24;13.80;12.30;10.30
42002;PMS7003;27693;50.506;30.832;2023-07-16T00:03:26;15.40;11.30;9.70
42002;PMS7003;27693;50.506;30.832;2023-07-16T00:04:29;12.60;11.70;9.60
42002;PMS7003;27693;50.506;30.832;2023-07-16T00:05:33;14.80;12.80;10.70
42002;PMS7003;27693;50.506;30.832;2023-07-16T00:06:35;15.80;11.80;9.70
42002;PMS7003;27693;50.506;30.832;2023-07-16T00:07:37;12.50;12.10;9.90
42002;PMS7003;27693;50.506;30.832;2023-07-16T00:08:41;13.00;11.80;10.00
42002;PMS7003;27693;50.506;30.832;2023-07-16T00:09:43;15.20;12.10;9.60
42002;PMS7003;27693;50.506;30.832;2023-07-16T00:10:46;14.64;11.09;9.91
42002;PMS7003;27693;50.506;30.832;2023-07-16T00:11:48;12.10;11.00;9.20
42002;PMS7003;27693;50.506;30.832;2023-07-16T00:12:50;11.60;11.20;8.80
42002;PMS7003;27693;50.506;30.832;2023-07-16T00:13:53;11.00;9.91;8.09
42002;PMS7003;27693;50.506;30.832;2023-07-16T00:14:56;11.60;10.60;8.50
42002;PMS7003;27693;50.506;30.832;2023-07-16T00:15:59;11.40;10.50;9.40
42002;PMS7003;27693;50.506;30.832;2023-07-16T00:17:02;13.70;11.60;9.20
42002;PMS7003;27693;50.506;30.832;2023-07-16T00:18:05;12.00;11.00;9.00
42002;PMS7003;27693;50.506;30.832;2023-07-16T00:19:10;12.00;9.73;8.36
42002;PMS7003;27693;50.506;30.832;2023-07-16T00:20:13;9.90;9.50;7.80
42002;PMS7003;27693;50.506;30.832;2023-07-16T00:21:15;10.10;10.00;8.60
42002;PMS7003;27693;50.506;30.832;2023-07-16T00:22:18;11.70;11.00;9.20
42002;PMS7003;27693;50.506;30.832;2023-07-16T00:23:22;12.70;11.20;9.70
42002;PMS7003;27693;50.506;30.832;2023-07-16T00:24:25;10.20;7.10;6.20
42002;PMS7003;27693;50.506;30.832;2023-07-16T00:25:27;10.90;10.70;9.30
42002;PMS7003;27693;50.506;30.832;2023-07-16T00:26:30;13.40;11.10;8.50
42002;PMS7003;27693;50.506;30.832;2023-07-16T00:27:32;13.10;10.50;8.60
42002;PMS7003;27693;50.506;30.832;2023-07-16T00:28:35;10.80;8.20;7.30
42002;PMS7003;27693;50.506;30.832;2023-07-16T00:29:38;12.00;10.55;8.73
42002;PMS7003;27693;50.506;30.832;2023-07-16T00:30:40;11.55;9.91;8.73
42002;PMS7003;27693;50.506;30.832;2023-07-16T00:31:43;10.00;9.36;7.00
42002;PMS7003;27693;50.506;30.832;2023-07-16T00:32:47;9.50;8.90;7.70
42002;PMS7003;27693;50.506;30.832;2023-07-16T00:33:50;10.90;10.10;8.60
42002;PMS7003;27693;50.506;30.832;2023-07-16T00:34:52;11.00;9.90;8.90
42002;PMS7003;27693;50.506;30.832;2023-07-16T00:35:54;11.40;11.00;8.80
42002;PMS7003;27693;50.506;30.832;2023-07-16T00:36:57;12.00;11.60;9.30
42002;PMS7003;27693;50.506;30.832;2023-07-16T00:38:01;13.70;10.60;8.90
42002;PMS7003;27693;50.506;30.832;2023-07-16T00:39:04;10.00;9.50;8.60
42002;PMS7003;27693;50.506;30.832;2023-07-16T00:40:08;11.50;9.50;8.50
42002;PMS7003;27693;50.506;30.832;2023-07-16T00:41:12;13.36;10.64;8.18
42002;PMS7003;27693;50.506;30.832;2023-07-16T00:42:16;9.10;8.20;6.10
42002;PMS7003;27693;50.506;30.832;2023-07-16T00:43:19;8.91;8.82;7.82
42002;PMS7003;27693;50.506;30.832;2023-07-16T00:44:22;11.27;10.36;7.55
42002;PMS7003;27693;50.506;30.832;2023-07-16T00:45:24;11.70;11.50;10.30
42002;PMS7003;27693;50.506;30.832;2023-07-16T00:46:27;10.50;10.20;8.60
42002;PMS7003;27693;50.506;30.832;2023-07-16T00:47:30;10.64;9.82;7.73
42002;PMS7003;27693;50.506;30.832;2023-07-16T00:48:32;10.20;9.20;7.40
42002;PMS7003;27693;50.506;30.832;2023-07-16T00:49:36;8.70;7.50;6.90
42002;PMS7003;27693;50.506;30.832;2023-07-16T00:50:39;9.80;9.80;8.20
42002;PMS7003;27693;50.506;30.832;2023-07-16T00:51:43;8.90;7.80;6.70
42002;PMS7003;27693;50.506;30.832;2023-07-16T00:52:46;13.70;10.50;8.30
42002;PMS7003;27693;50.506;30.832;2023-07-16T00:53:48;12.80;10.30;9.30
42002;PMS7003;27693;50.506;30.832;2023-07-16T00:54:53;7.80;7.80;6.10
42002;PMS7003;27693;50.506;30.832;2023-07-16T00:55:57;11.60;10.10;8.00
42002;PMS7003;27693;50.506;30.832;2023-07-16T00:57:00;9.10;8.20;7.30
42002;PMS7003;27693;50.506;30.832;2023-07-16T00:58:04;8.90;8.90;6.50
42002;PMS7003;27693;50.506;30.832;2023-07-16T00:59:08;8.90;8.90;7.80
42002;PMS7003;27693;50.506;30.832;2023-07-16T01:00:11;7.18;7.18;5.09
42002;PMS7003;27693;50.506;30.832;2023-07-16T01:01:14;11.10;8.60;7.40
42002;PMS7003;27693;50.506;30.832;2023-07-16T01:02:17;8.20;7.90;6.20
42002;PMS7003;27693;50.506;30.832;2023-07-16T01:03:19;10.30;8.40;7.30
42002;PMS7003;27693;50.506;30.832;2023-07-16T01:04:22;13.20;9.50;8.50
42002;PMS7003;27693;50.506;30.832;2023-07-16T01:05:24;11.00;9.00;7.70
42002;PMS7003;27693;50.506;30.832;2023-07-16T01:06:40;9.80;9.60;7.70
42002;PMS7003;27693;50.506;30.832;2023-07-16T01:07:47;11.30;10.20;8.30
42002;PMS7003;27693;50.506;30.832;2023-07-16T01:08:58;11.90;9.10;7.90
42002;PMS7003;27693;50.506;30.832;2023-07-16T01:10:20;9.80;8.50;7.70
42002;PMS7003;27693;50.506;30.832;2023-07-16T01:11:24;8.10;7.90;6.30
42002;PMS7003;27693;50.506;30.832;2023-07-16T01:12:29;10.00;10.00;8.50
42002;PMS7003;27693;50.506;30.832;2023-07-16T01:13:35;11.50;10.80;9.20
42002;PMS7003;27693;50.506;30.832;2023-07-16T01:14:38;9.09;7.91;6.27
42002;PMS7003;27693;50.506;30.832;2023-07-16T01:15:42;10.20;9.80;8.40
42002;PMS7003;27693;50.506;30.832;2023-07-16T01:16:45;10.00;8.91;7.45
42002;PMS7003;27693;50.506;30.832;2023-07-16T01:17:48;5.60;4.70;4.00
42002;PMS7003;27693;50.506;30.832;2023-07-16T01:18:51;11.00;9.90;7.90
42002;PMS7003;27693;50.506;30.832;2023-07-16T01:19:54;10.10;9.60;7.60
42002;PMS7003;27693;50.506;30.832;2023-07-16T01:20:58;8.70;8.20;6.90
42002;PMS7003;27693;50.506;30.832;2023-07-16T01:29:36;13.70;10.80;7.90
42002;PMS7003;27693;50.506;30.832;2023-07-16T01:30:53;10.80;9.60;8.60
42002;PMS7003;27693;50.506;30.832;2023-07-16T01:32:00;9.10;8.80;7.80
42002;PMS7003;27693;50.506;30.832;2023-07-16T01:33:05;11.00;9.00;7.90
42002;PMS7003;27693;50.506;30.832;2023-07-16T01:34:12;11.50;10.40;8.50
42002;PMS7003;27693;50.506;30.832;2023-07-16T01:35:16;10.60;8.80;7.10
42002;PMS7003;27693;50.506;30.832;2023-07-16T01:36:19;10.80;10.10;8.50
42002;PMS7003;27693;50.506;30.832;2023-07-16T01:37:23;9.90;8.00;6.50
42002;PMS7003;27693;50.506;30.832;2023-07-16T01:38:26;9.80;8.80;7.10
42002;PMS7003;27693;50.506;30.832;2023-07-16T01:39:29;10.55;9.55;8.00
42002;PMS7003;27693;50.506;30.832;2023-07-16T01:40:35;11.50;9.40;7.50
42002;PMS7003;27693;50.506;30.832;2023-07-16T01:41:37;12.60;10.60;8.50
42002;PMS7003;27693;50.506;30.832;2023-07-16T01:42:40;8.90;8.20;7.10
42002;PMS7003;27693;50.506;30.832;2023-07-16T01:43:44;9.80;9.20;8.00
42002;PMS7003;27693;50.506;30.832;2023-07-16T01:44:46;9.10;8.20;6.70
42002;PMS7003;27693;50.506;30.832;2023-07-16T01:45:49;10.36;10.00;8.55
42002;PMS7003;27693;50.506;30.832;2023-07-16T01:47:11;10.30;10.30;8.70
42002;PMS7003;27693;50.506;30.832;2023-07-16T01:48:31;10.50;10.20;8.20
42002;PMS7003;27693;50.506;30.832;2023-07-16T01:49:39;10.30;9.50;8.30
42002;PMS7003;27693;50.506;30.832;2023-07-16T01:50:43;8.80;8.20;7.00
42002;PMS7003;27693;50.506;30.832;2023-07-16T01:51:45;8.70;8.10;6.70
42002;PMS7003;27693;50.506;30.832;2023-07-16T01:52:48;11.40;9.30;7.40
42002;PMS7003;27693;50.506;30.832;2023-07-16T01:53:50;9.00;8.60;7.30
42002;PMS7003;27693;50.506;30.832;2023-07-16T01:54:53;10.80;9.80;8.30
42002;PMS7003;27693;50.506;30.832;2023-07-16T01:55:56;8.73;7.18;5.27
42002;PMS7003;27693;50.506;30.832;2023-07-16T01:56:59;11.09;8.82;7.82
42002;PMS7003;27693;50.506;30.832;2023-07-16T01:58:01;11.60;8.60;7.10
42002;PMS7003;27693;50.506;30.832;2023-07-16T01:59:05;7.10;7.10;6.10
42002;PMS7003;27693;50.506;30.832;2023-07-16T02:00:08;8.90;7.60;6.50
42002;PMS7003;27693;50.506;30.832;2023-07-16T02:01:16;8.60;6.60;5.60
42002;PMS7003;27693;50.506;30.832;2023-07-16T02:02:19;8.40;7.00;6.10
42002;PMS7003;27693;50.506;30.832;2023-07-16T02:03:22;8.00;8.00;7.00
42002;PMS7003;27693;50.506;30.832;2023-07-16T02:04:25;8.20;8.10;6.80
42002;PMS7003;27693;50.506;30.832;2023-07-16T02:05:27;10.70;7.90;6.40
42002;PMS7003;27693;50.506;30.832;2023-07-16T02:06:30;10.60;9.10;7.30
42002;PMS7003;27693;50.506;30.832;2023-07-16T02:07:32;9.20;8.80;7.40
42002;PMS7003;27693;50.506;30.832;2023-07-16T02:08:35;7.10;7.00;5.50
42002;PMS7003;27693;50.506;30.832;2023-07-16T02:09:38;9.90;8.60;6.90
42002;PMS7003;27693;50.506;30.832;2023-07-16T02:10:42;10.20;7.80;6.20
42002;PMS7003;27693;50.506;30.832;2023-07-16T02:11:46;10.20;9.00;7.60
42002;PMS7003;27693;50.506;30.832;2023-07-16T02:12:48;9.10;8.90;7.50
42002;PMS7003;27693;50.506;30.832;2023-07-16T02:13:51;8.80;8.80;7.40
42002;PMS7003;27693;50.506;30.832;2023-07-16T02:14:53;9.20;7.60;5.80
42002;PMS7003;27693;50.506;30.832;2023-07-16T02:15:55;10.10;9.30;7.30
42002;PMS7003;27693;50.506;30.832;2023-07-16T02:16:58;8.40;8.10;7.50
42002;PMS7003;27693;50.506;30.832;2023-07-16T02:18:00;10.60;8.10;6.90
42002;PMS7003;27693;50.506;30.832;2023-07-16T02:19:03;8.50;7.60;6.70
42002;PMS7003;27693;50.506;30.832;2023-07-16T02:20:06;9.18;9.18;7.55
42002;PMS7003;27693;50.506;30.832;2023-07-16T02:21:09;9.10;7.10;6.20
42002;PMS7003;27693;50.506;30.832;2023-07-16T02:22:12;11.90;10.10;7.40
42002;PMS7003;27693;50.506;30.832;2023-07-16T02:23:15;11.20;8.90;7.40
42002;PMS7003;27693;50.506;30.832;2023-07-16T02:24:18;9.70;8.20;6.90
42002;PMS7003;27693;50.506;30.832;2023-07-16T02:25:20;8.50;8.30;7.50
42002;PMS7003;27693;50.506;30.832;2023-07-16T02:26:23;9.70;8.70;7.90
42002;PMS7003;27693;50.506;30.832;2023-07-16T02:27:25;9.00;8.60;7.10
42002;PMS7003;27693;50.506;30.832;2023-07-16T02:28:27;9.70;9.40;8.00
42002;PMS7003;27693;50.506;30.832;2023-07-16T02:29:31;11.80;10.70;8.90
42002;PMS7003;27693;50.506;30.832;2023-07-16T02:30:33;9.90;9.40;7.80
42002;PMS7003;27693;50.506;30.832;2023-07-16T02:31:36;8.70;6.30;5.20
42002;PMS7003;27693;50.506;30.832;2023-07-16T02:32:38;8.64;8.27;6.91
42002;PMS7003;27693;50.506;30.832;2023-07-16T02:33:41;11.40;10.30;9.20
42002;PMS7003;27693;50.506;30.832;2023-07-16T02:34:44;10.00;9.27;8.00
42002;PMS7003;27693;50.506;30.832;2023-07-16T02:35:47;11.00;9.60;8.00
42002;PMS7003;27693;50.506;30.832;2023-07-16T02:36:56;11.50;9.70;7.60
42002;PMS7003;27693;50.506;30.832;2023-07-16T02:38:01;10.60;9.40;7.80
42002;PMS7003;27693;50.506;30.832;2023-07-16T02:39:05;10.00;8.70;7.40
42002;PMS7003;27693;50.506;30.832;2023-07-16T02:40:08;10.64;9.36;8.27
42002;PMS7003;27693;50.506;30.832;2023-07-16T02:41:11;9.80;9.40;7.70
42002;PMS7003;27693;50.506;30.832;2023-07-16T02:42:13;11.60;10.50;8.60
42002;PMS7003;27693;50.506;30.832;2023-07-16T02:43:16;10.90;9.00;7.80
42002;PMS7003;27693;50.506;30.832;2023-07-16T02:44:20;10.30;9.50;7.30
42002;PMS7003;27693;50.506;30.832;2023-07-16T02:45:23;9.64;9.00;7.82
42002;PMS7003;27693;50.506;30.832;2023-07-16T02:46:25;10.64;9.82;8.64
42002;PMS7003;27693;50.506;30.832;2023-07-16T02:47:29;9.40;8.90;7.10
42002;PMS7003;27693;50.506;30.832;2023-07-16T02:48:32;10.40;9.60;8.20
42002;PMS7003;27693;50.506;30.832;2023-07-16T02:49:34;10.60;10.40;8.60
42002;PMS7003;27693;50.506;30.832;2023-07-16T02:50:37;12.18;9.73;8.27
42002;PMS7003;27693;50.506;30.832;2023-07-16T02:51:40;10.91;10.00;8.36
42002;PMS7003;27693;50.506;30.832;2023-07-16T02:52:42;10.40;8.30;7.10
42002;PMS7003;27693;50.506;30.832;2023-07-16T02:53:44;11.40;8.80;8.00
42002;PMS7003;27693;50.506;30.832;2023-07-16T02:54:47;9.90;8.00;7.20
42002;PMS7003;27693;50.506;30.832;2023-07-16T02:55:49;10.30;9.70;8.20
42002;PMS7003;27693;50.506;30.832;2023-07-16T02:56:52;10.20;9.20;8.30
42002;PMS7003;27693;50.506;30.832;2023-07-16T02:57:54;11.60;10.60;9.30
42002;PMS7003;27693;50.506;30.832;2023-07-16T02:58:56;10.10;9.30;7.50
42002;PMS7003;27693;50.506;30.832;2023-07-16T02:59:59;10.50;9.90;8.70
42002;PMS7003;27693;50.506;30.832;2023-07-16T03:01:01;10.40;7.70;6.50
42002;PMS7003;27693;50.506;30.832;2023-07-16T03:02:04;11.10;10.40;9.10
42002;PMS7003;27693;50.506;30.832;2023-07-16T03:03:06;11.50;10.10;7.60
42002;PMS7003;27693;50.506;30.832;2023-07-16T03:04:09;10.10;9.40;7.80
42002;PMS7003;27693;50.506;30.832;2023-07-16T03:05:11;10.50;8.80;7.80
42002;PMS7003;27693;50.506;30.832;2023-07-16T03:06:14;11.00;10.00;8.30
42002;PMS7003;27693;50.506;30.832;2023-07-16T03:07:18;10.10;9.60;8.40
42002;PMS7003;27693;50.506;30.832;2023-07-16T03:08:21;7.90;7.70;6.40
42002;PMS7003;27693;50.506;30.832;2023-07-16T03:09:24;1.10;0.20;0.20
42002;PMS7003;27693;50.506;30.832;2023-07-16T03:10:26;10.50;8.60;7.40
42002;PMS7003;27693;50.506;30.832;2023-07-16T03:11:29;11.70;9.50;8.10
42002;PMS7003;27693;50.506;30.832;2023-07-16T03:12:33;10.30;9.80;8.00
42002;PMS7003;27693;50.506;30.832;2023-07-16T03:13:36;13.60;11.40;9.90
42002;PMS7003;27693;50.506;30.832;2023-07-16T03:14:39;14.82;12.82;10.27
42002;PMS7003;27693;50.506;30.832;2023-07-16T03:15:41;13.40;12.10;8.80
42002;PMS7003;27693;50.506;30.832;2023-07-16T03:16:44;12.70;11.30;9.80
42002;PMS7003;27693;50.506;30.832;2023-07-16T03:17:46;10.90;10.50;8.90
42002;PMS7003;27693;50.506;30.832;2023-07-16T03:18:49;12.00;10.36;8.09
42002;PMS7003;27693;50.506;30.832;2023-07-16T03:19:52;12.00;11.20;9.00
42002;PMS7003;27693;50.506;30.832;2023-07-16T03:20:54;10.80;9.90;8.00
42002;PMS7003;27693;50.506;30.832;2023-07-16T03:21:57;9.36;9.18;7.91
42002;PMS7003;27693;50.506;30.832;2023-07-16T03:22:59;12.90;9.90;7.50
42002;PMS7003;27693;50.506;30.832;2023-07-16T03:24:03;8.27;7.64;6.45
42002;PMS7003;27693;50.506;30.832;2023-07-16T03:25:06;10.90;10.30;8.80
42002;PMS7003;27693;50.506;30.832;2023-07-16T03:26:09;9.90;8.30;7.40
42002;PMS7003;27693;50.506;30.832;2023-07-16T03:27:12;9.90;8.40;7.30
42002;PMS7003;27693;50.506;30.832;2023-07-16T03:28:17;10.10;10.10;8.30
42002;PMS7003;27693;50.506;30.832;2023-07-16T03:29:20;13.70;11.10;9.70
42002;PMS7003;27693;50.506;30.832;2023-07-16T03:30:24;9.00;8.00;7.30
42002;PMS7003;27693;50.506;30.832;2023-07-16T03:31:27;11.10;10.20;7.80
42002;PMS7003;27693;50.506;30.832;2023-07-16T03:32:31;12.10;10.70;8.80
42002;PMS7003;27693;50.506;30.832;2023-07-16T03:33:36;10.80;10.10;8.70
42002;PMS7003;27693;50.506;30.832;2023-07-16T03:34:41;10.50;9.00;7.60
42002;PMS7003;27693;50.506;30.832;2023-07-16T03:35:48;10.20;8.90;7.00
42002;PMS7003;27693;50.506;30.832;2023-07-16T03:36:52;10.30;9.50;8.00
42002;PMS7003;27693;50.506;30.832;2023-07-16T03:37:55;9.50;9.20;7.90
42002;PMS7003;27693;50.506;30.832;2023-07-16T03:38:58;9.60;9.60;7.80
42002;PMS7003;27693;50.506;30.832;2023-07-16T03:41:25;6.30;4.10;3.00
42002;PMS7003;27693;50.506;30.832;2023-07-16T03:42:28;10.10;10.10;8.40
42002;PMS7003;27693;50.506;30.832;2023-07-16T03:43:32;9.30;8.80;7.20
42002;PMS7003;27693;50.506;30.832;2023-07-16T03:44:36;10.90;10.30;8.50
42002;PMS7003;27693;50.506;30.832;2023-07-16T03:45:39;11.00;9.30;7.90
42002;PMS7003;27693;50.506;30.832;2023-07-16T03:46:42;13.40;9.90;8.50
42002;PMS7003;27693;50.506;30.832;2023-07-16T03:47:45;11.70;10.60;9.30
42002;PMS7003;27693;50.506;30.832;2023-07-16T03:48:48;13.00;10.20;8.60
42002;PMS7003;27693;50.506;30.832;2023-07-16T03:49:50;10.90;10.00;8.00
42002;PMS7003;27693;50.506;30.832;2023-07-16T03:50:53;11.80;10.10;8.00
42002;PMS7003;27693;50.506;30.832;2023-07-16T03:51:56;9.20;9.10;7.60
42002;PMS7003;27693;50.506;30.832;2023-07-16T03:52:58;10.70;8.90;8.00
42002;PMS7003;27693;50.506;30.832;2023-07-16T03:54:02;10.10;9.80;8.10
42002;PMS7003;27693;50.506;30.832;2023-07-16T03:55:04;10.60;9.80;7.30
42002;PMS7003;27693;50.506;30.832;2023-07-16T03:56:09;10.50;9.20;8.40
42002;PMS7003;27693;50.506;30.832;2023-07-16T03:57:11;10.40;8.50;6.80
42002;PMS7003;27693;50.506;30.832;2023-07-16T03:58:14;8.60;8.60;7.70
42002;PMS7003;27693;50.506;30.832;2023-07-16T03:59:16;10.20;9.40;7.60
42002;PMS7003;27693;50.506;30.832;2023-07-16T04:00:20;11.60;9.60;7.90
42002;PMS7003;27693;50.506;30.832;2023-07-16T04:01:24;9.70;9.00;7.60
42002;PMS7003;27693;50.506;30.832;2023-07-16T04:02:27;9.30;8.70;7.30
42002;PMS7003;27693;50.506;30.832;2023-07-16T04:03:29;9.45;9.45;7.55
42002;PMS7003;27693;50.506;30.832;2023-07-16T04:04:31;8.40;8.40;7.10
42002;PMS7003;27693;50.506;30.832;2023-07-16T04:05:34;10.70;10.40;7.90
42002;PMS7003;27693;50.506;30.832;2023-07-16T04:06:37;10.30;8.80;7.10
42002;PMS7003;27693;50.506;30.832;2023-07-16T04:07:40;9.18;9.18;8.09
42002;PMS7003;27693;50.506;30.832;2023-07-16T04:08:42;9.90;8.70;7.00
42002;PMS7003;27693;50.506;30.832;2023-07-16T04:09:44;9.45;8.09;6.82
42002;PMS7003;27693;50.506;30.832;2023-07-16T04:10:47;11.10;10.40;8.40
42002;PMS7003;27693;50.506;30.832;2023-07-16T04:11:50;10.45;9.55;7.45
42002;PMS7003;27693;50.506;30.832;2023-07-16T04:12:52;11.10;10.00;7.90
42002;PMS7003;27693;50.506;30.832;2023-07-16T04:13:55;11.60;10.20;8.90
42002;PMS7003;27693;50.506;30.832;2023-07-16T04:14:58;12.00;11.20;10.30
42002;PMS7003;27693;50.506;30.832;2023-07-16T04:16:01;12.30;10.00;8.20
42002;PMS7003;27693;50.506;30.832;2023-07-16T04:17:04;10.80;10.10;8.60
42002;PMS7003;27693;50.506;30.832;2023-07-16T04:18:07;12.60;10.70;8.60
42002;PMS7003;27693;50.506;30.832;2023-07-16T04:19:10;8.50;7.20;6.20
42002;PMS7003;27693;50.506;30.832;2023-07-16T04:20:13;11.10;10.50;9.20
42002;PMS7003;27693;50.506;30.832;2023-07-16T04:21:15;9.80;9.30;7.90
42002;PMS7003;27693;50.506;30.832;2023-07-16T04:22:18;8.90;8.10;7.30
42002;PMS7003;27693;50.506;30.832;2023-07-16T04:23:20;12.30;10.80;9.20
42002;PMS7003;27693;50.506;30.832;2023-07-16T04:24:24;13.20;10.90;9.20
42002;PMS7003;27693;50.506;30.832;2023-07-16T04:25:28;10.90;9.90;7.80
42002;PMS7003;27693;50.506;30.832;2023-07-16T04:26:31;12.00;9.80;8.10
42002;PMS7003;27693;50.506;30.832;2023-07-16T04:27:34;12.60;10.80;8.20
42002;PMS7003;27693;50.506;30.832;2023-07-16T04:28:37;10.10;9.10;8.70
42002;PMS7003;27693;50.506;30.832;2023-07-16T04:29:41;16.70;14.70;11.80
42002;PMS7003;27693;50.506;30.832;2023-07-16T04:30:43;17.10;13.40;10.20
42002;PMS7003;27693;50.506;30.832;2023-07-16T04:31:45;14.00;12.10;9.00
42002;PMS7003;27693;50.506;30.832;2023-07-16T04:32:48;12.50;10.80;8.90
42002;PMS7003;27693;50.506;30.832;2023-07-16T04:33:51;7.20;6.60;6.50
42002;PMS7003;27693;50.506;30.832;2023-07-16T04:34:53;5.80;5.30;3.90
42002;PMS7003;27693;50.506;30.832;2023-07-16T04:35:56;11.70;9.60;7.60
42002;PMS7003;27693;50.506;30.832;2023-07-16T04:36:58;7.60;7.50;6.10
42002;PMS7003;27693;50.506;30.832;2023-07-16T04:38:01;8.70;8.30;6.30
42002;PMS7003;27693;50.506;30.832;2023-07-16T04:39:04;7.30;7.00;5.60
42002;PMS7003;27693;50.506;30.832;2023-07-16T04:40:07;9.73;9.36;7.45
42002;PMS7003;27693;50.506;30.832;2023-07-16T04:41:10;10.00;7.70;6.70
42002;PMS7003;27693;50.506;30.832;2023-07-16T04:42:14;7.90;7.60;6.30
42002;PMS7003;27693;50.506;30.832;2023-07-16T04:43:18;8.40;7.90;6.80
42002;PMS7003;27693;50.506;30.832;2023-07-16T04:44:21;3.91;3.55;2.82
42002;PMS7003;27693;50.506;30.832;2023-07-16T04:45:24;8.10;7.90;6.30
42002;PMS7003;27693;50.506;30.832;2023-07-16T04:46:26;7.50;7.40;6.60
42002;PMS7003;27693;50.506;30.832;2023-07-16T04:47:29;9.27;8.27;6.64
42002;PMS7003;27693;50.506;30.832;2023-07-16T04:48:31;10.50;7.60;6.40
42002;PMS7003;27693;50.506;30.832;2023-07-16T04:49:34;6.36;5.91;4.64
42002;PMS7003;27693;50.506;30.832;2023-07-16T04:50:38;10.40;7.20;6.10
42002;PMS7003;27693;50.506;30.832;2023-07-16T04:51:41;8.73;8.18;6.91
42002;PMS7003;27693;50.506;30.832;2023-07-16T04:52:43;8.30;6.60;6.00
42002;PMS7003;27693;50.506;30.832;2023-07-16T04:53:45;8.00;6.00;5.00
42002;PMS7003;27693;50.506;30.832;2023-07-16T04:54:47;6.40;5.40;4.70
42002;PMS7003;27693;50.506;30.832;2023-07-16T04:55:50;6.50;5.20;4.30
42002;PMS7003;27693;50.506;30.832;2023-07-16T04:56:54;6.80;6.30;5.60
42002;PMS7003;27693;50.506;30.832;2023-07-16T04:57:57;7.90;6.50;5.80
42002;PMS7003;27693;50.506;30.832;2023-07-16T04:59:00;6.90;6.30;5.10
42002;PMS7003;27693;50.506;30.832;2023-07-16T05:00:03;4.90;4.90;4.40
42002;PMS7003;27693;50.506;30.832;2023-07-16T05:01:08;6.90;5.70;4.90
42002;PMS7003;27693;50.506;30.832;2023-07-16T05:02:12;8.70;6.40;4.70
42002;PMS7003;27693;50.506;30.832;2023-07-16T05:03:16;7.30;5.80;5.10
42002;PMS7003;27693;50.506;30.832;2023-07-16T05:04:19;6.20;5.70;5.50
42002;PMS7003;27693;50.506;30.832;2023-07-16T05:05:22;7.60;6.30;5.60
42002;PMS7003;27693;50.506;30.832;2023-07-16T05:06:25;7.40;6.80;5.30
42002;PMS7003;27693;50.506;30.832;2023-07-16T05:07:27;9.10;6.40;5.90
42002;PMS7003;27693;50.506;30.832;2023-07-16T05:08:30;6.00;5.70;4.80
42002;PMS7003;27693;50.506;30.832;2023-07-16T05:09:33;6.00;5.70;5.00
42002;PMS7003;27693;50.506;30.832;2023-07-16T05:10:35;6.00;5.10;4.70
42002;PMS7003;27693;50.506;30.832;2023-07-16T05:11:37;6.20;5.80;4.00
42002;PMS7003;27693;50.506;30.832;2023-07-16T05:12:40;5.80;5.40;4.90
42002;PMS7003;27693;50.506;30.832;2023-07-16T05:13:42;5.50;4.40;4.20
42002;PMS7003;27693;50.506;30.832;2023-07-16T05:14:46;4.90;4.90;4.10
42002;PMS7003;27693;50.506;30.832;2023-07-16T05:15:49;6.60;4.80;4.10
42002;PMS7003;27693;50.506;30.832;2023-07-16T05:16:52;6.90;4.20;3.70
42002;PMS7003;27693;50.506;30.832;2023-07-16T05:17:56;2.70;2.60;1.90
42002;PMS7003;27693;50.506;30.832;2023-07-16T05:19:00;5.30;4.10;3.60
42002;PMS7003;27693;50.506;30.832;2023-07-16T05:20:02;4.20;3.90;3.40
42002;PMS7003;27693;50.506;30.832;2023-07-16T05:21:08;4.90;4.00;3.70
42002;PMS7003;27693;50.506;30.832;2023-07-16T05:22:10;2.60;2.40;1.60
42002;PMS7003;27693;50.506;30.832;2023-07-16T05:23:13;5.20;3.90;3.60
42002;PMS7003;27693;50.506;30.832;2023-07-16T05:24:16;5.18;5.18;4.09
42002;PMS7003;27693;50.506;30.832;2023-07-16T05:25:18;4.09;4.09;3.82
42002;PMS7003;27693;50.506;30.832;2023-07-16T05:26:21;6.00;4.50;4.20
42002;PMS7003;27693;50.506;30.832;2023-07-16T05:27:23;4.80;4.10;3.50
42002;PMS7003;27693;50.506;30.832;2023-07-16T05:28:26;5.40;4.40;3.70
42002;PMS7003;27693;50.506;30.832;2023-07-16T05:29:28;6.40;5.70;4.80
42002;PMS7003;27693;50.506;30.832;2023-07-16T05:30:31;5.60;5.20;4.20
42002;PMS7003;27693;50.506;30.832;2023-07-16T05:31:33;4.60;4.40;4.30
42002;PMS7003;27693;50.506;30.832;2023-07-16T05:32:36;7.60;4.70;4.20
42002;PMS7003;27693;50.506;30.832;2023-07-16T05:33:40;5.40;4.90;4.20
42002;PMS7003;27693;50.506;30.832;2023-07-16T05:34:43;6.40;5.10;4.40
42002;PMS7003;27693;50.506;30.832;2023-07-16T05:35:48;6.40;6.40;4.70
42002;PMS7003;27693;50.506;30.832;2023-07-16T05:36:52;4.00;3.70;3.50
42002;PMS7003;27693;50.506;30.832;2023-07-16T05:37:56;6.80;5.00;4.20
42002;PMS7003;27693;50.506;30.832;2023-07-16T05:38:59;4.82;4.82;4.55
42002;PMS7003;27693;50.506;30.832;2023-07-16T05:40:01;6.60;5.40;4.50
42002;PMS7003;27693;50.506;30.832;2023-07-16T05:41:06;9.50;7.50;5.90
42002;PMS7003;27693;50.506;30.832;2023-07-16T05:42:08;2.70;2.70;2.20
42002;PMS7003;27693;50.506;30.832;2023-07-16T05:43:11;4.50;4.50;3.80
42002;PMS7003;27693;50.506;30.832;2023-07-16T05:44:13;4.10;3.90;3.50
42002;PMS7003;27693;50.506;30.832;2023-07-16T05:45:15;4.60;4.30;3.60
42002;PMS7003;27693;50.506;30.832;2023-07-16T05:46:18;5.20;5.00;4.90
42002;PMS7003;27693;50.506;30.832;2023-07-16T05:47:21;5.00;4.50;3.80
42002;PMS7003;27693;50.506;30.832;2023-07-16T05:48:24;4.80;4.80;4.00
42002;PMS7003;27693;50.506;30.832;2023-07-16T05:49:28;5.00;4.30;3.90
42002;PMS7003;27693;50.506;30.832;2023-07-16T05:50:31;5.00;5.00;4.50
42002;PMS7003;27693;50.506;30.832;2023-07-16T05:51:34;5.36;5.00;4.36
42002;PMS7003;27693;50.506;30.832;2023-07-16T05:52:36;4.64;4.00;3.09
42002;PMS7003;27693;50.506;30.832;2023-07-16T05:53:39;5.60;4.40;3.90
42002;PMS7003;27693;50.506;30.832;2023-07-16T05:54:43;4.27;3.91;3.00
42002;PMS7003;27693;50.506;30.832;2023-07-16T05:55:46;4.80;3.80;3.30
42002;PMS7003;27693;50.506;30.832;2023-07-16T05:56:51;4.20;4.00;3.80
42002;PMS7003;27693;50.506;30.832;2023-07-16T05:57:54;4.90;3.70;2.90
42002;PMS7003;27693;50.506;30.832;2023-07-16T05:58:56;5.30;4.60;4.00
42002;PMS7003;27693;50.506;30.832;2023-07-16T05:59:58;4.30;4.30;3.70
42002;PMS7003;27693;50.506;30.832;2023-07-16T06:01:01;3.80;3.80;3.00
42002;PMS7003;27693;50.506;30.832;2023-07-16T06:02:04;5.30;4.60;4.00
42002;PMS7003;27693;50.506;30.832;2023-07-16T06:03:07;3.90;3.20;3.00
42002;PMS7003;27693;50.506;30.832;2023-07-16T06:04:10;5.10;4.40;3.60
42002;PMS7003;27693;50.506;30.832;2023-07-16T06:05:13;5.10;4.60;4.00
42002;PMS7003;27693;50.506;30.832;2023-07-16T06:06:15;4.20;4.20;4.00
42002;PMS7003;27693;50.506;30.832;2023-07-16T06:07:18;3.00;2.30;2.30
42002;PMS7003;27693;50.506;30.832;2023-07-16T06:08:21;4.70;4.10;3.40
42002;PMS7003;27693;50.506;30.832;2023-07-16T06:09:23;3.90;3.90;3.80
42002;PMS7003;27693;50.506;30.832;2023-07-16T06:10:27;3.70;1.90;1.80